sensor_id;sensor_type;location;lat;lon;timestamp;P1;durP1;ratioP1;P2;durP2;ratioP2
45254;SDS011;30989;52.078;21.014;2023-04-28T00:01:22;20.35;;;7.85;;
45254;SDS011;30989;52.078;21.014;2023-04-28T00:03:48;17.95;;;8.75;;
45254;SDS011;30989;52.078;21.014;2023-04-28T00:06:13;25.42;;;8.98;;
45254;SDS011;30989;52.078;21.014;2023-04-28T00:08:39;17.42;;;7.82;;
45254;SDS011;30989;52.078;21.014;2023-04-28T00:11:08;22.83;;;8.02;;
45254;SDS011;30989;52.078;21.014;2023-04-28T00:13:34;17.83;;;7.97;;
45254;SDS011;30989;52.078;21.014;2023-04-28T00:16:00;15.55;;;6.97;;
45254;SDS011;30989;52.078;21.014;2023-04-28T00:18:26;21.02;;;7.53;;
45254;SDS011;30989;52.078;21.014;2023-04-28T00:20:51;23.08;;;9.20;;
45254;SDS011;30989;52.078;21.014;2023-04-28T00:23:17;22.30;;;8.85;;
45254;SDS011;30989;52.078;21.014;2023-04-28T00:25:42;22.80;;;8.20;;
45254;SDS011;30989;52.078;21.014;2023-04-28T00:28:07;25.70;;;8.57;;
45254;SDS011;30989;52.078;21.014;2023-04-28T00:30:33;23.45;;;7.57;;
45254;SDS011;30989;52.078;21.014;2023-04-28T00:32:58;23.02;;;7.95;;
45254;SDS011;30989;52.078;21.014;2023-04-28T00:35:24;28.65;;;9.38;;
45254;SDS011;30989;52.078;21.014;2023-04-28T00:37:49;22.17;;;7.88;;
45254;SDS011;30989;52.078;21.014;2023-04-28T00:40:15;32.42;;;8.70;;
45254;SDS011;30989;52.078;21.014;2023-04-28T00:42:40;25.00;;;9.23;;
45254;SDS011;30989;52.078;21.014;2023-04-28T00:45:05;17.95;;;8.38;;
45254;SDS011;30989;52.078;21.014;2023-04-28T00:47:35;25.23;;;9.63;;
45254;SDS011;30989;52.078;21.014;2023-04-28T00:50:02;26.20;;;9.57;;
45254;SDS011;30989;52.078;21.014;2023-04-28T00:52:30;25.55;;;11.00;;
45254;SDS011;30989;52.078;21.014;2023-04-28T00:54:55;31.02;;;11.88;;
45254;SDS011;30989;52.078;21.014;2023-04-28T00:57:21;23.83;;;9.95;;
45254;SDS011;30989;52.078;21.014;2023-04-28T00:59:47;27.40;;;10.48;;
45254;SDS011;30989;52.078;21.014;2023-04-28T01:02:13;26.52;;;12.02;;
45254;SDS011;30989;52.078;21.014;2023-04-28T01:04:42;31.58;;;12.80;;
45254;SDS011;30989;52.078;21.014;2023-04-28T01:07:08;31.88;;;12.43;;
45254;SDS011;30989;52.078;21.014;2023-04-28T01:09:34;30.95;;;13.18;;
45254;SDS011;30989;52.078;21.014;2023-04-28T01:12:00;25.20;;;12.15;;
45254;SDS011;30989;52.078;21.014;2023-04-28T01:14:39;30.42;;;12.73;;
45254;SDS011;30989;52.078;21.014;2023-04-28T01:17:04;23.52;;;10.98;;
45254;SDS011;30989;52.078;21.014;2023-04-28T01:19:31;23.95;;;10.15;;
45254;SDS011;30989;52.078;21.014;2023-04-28T01:21:56;27.20;;;11.30;;
45254;SDS011;30989;52.078;21.014;2023-04-28T01:24:23;29.38;;;11.07;;
45254;SDS011;30989;52.078;21.014;2023-04-28T01:26:49;30.23;;;10.60;;
45254;SDS011;30989;52.078;21.014;2023-04-28T01:29:14;24.92;;;9.68;;
45254;SDS011;30989;52.078;21.014;2023-04-28T01:31:40;25.92;;;11.15;;
45254;SDS011;30989;52.078;21.014;2023-04-28T01:34:06;32.45;;;10.73;;
45254;SDS011;30989;52.078;21.014;2023-04-28T01:36:32;25.88;;;10.30;;
45254;SDS011;30989;52.078;21.014;2023-04-28T01:38:57;22.88;;;9.77;;
45254;SDS011;30989;52.078;21.014;2023-04-28T01:41:23;27.17;;;9.25;;
45254;SDS011;30989;52.078;21.014;2023-04-28T01:43:48;23.25;;;9.07;;
45254;SDS011;30989;52.078;21.014;2023-04-28T01:46:14;21.77;;;9.98;;
45254;SDS011;30989;52.078;21.014;2023-04-28T01:48:40;29.45;;;9.30;;
45254;SDS011;30989;52.078;21.014;2023-04-28T01:51:05;21.77;;;9.38;;
45254;SDS011;30989;52.078;21.014;2023-04-28T01:53:31;29.83;;;11.23;;
45254;SDS011;30989;52.078;21.014;2023-04-28T01:55:57;30.58;;;10.38;;
45254;SDS011;30989;52.078;21.014;2023-04-28T01:58:23;23.83;;;11.63;;
45254;SDS011;30989;52.078;21.014;2023-04-28T02:00:49;26.90;;;10.93;;
45254;SDS011;30989;52.078;21.014;2023-04-28T02:03:16;29.05;;;11.75;;
45254;SDS011;30989;52.078;21.014;2023-04-28T02:05:42;28.73;;;10.88;;
45254;SDS011;30989;52.078;21.014;2023-04-28T02:08:07;28.90;;;10.57;;
45254;SDS011;30989;52.078;21.014;2023-04-28T02:10:33;23.45;;;10.32;;
45254;SDS011;30989;52.078;21.014;2023-04-28T02:12:58;28.00;;;11.82;;
45254;SDS011;30989;52.078;21.014;2023-04-28T02:15:24;29.55;;;12.02;;
45254;SDS011;30989;52.078;21.014;2023-04-28T02:17:49;25.10;;;10.35;;
45254;SDS011;30989;52.078;21.014;2023-04-28T02:20:15;22.55;;;8.95;;
45254;SDS011;30989;52.078;21.014;2023-04-28T02:22:40;26.40;;;9.27;;
45254;SDS011;30989;52.078;21.014;2023-04-28T02:25:06;24.75;;;10.10;;
45254;SDS011;30989;52.078;21.014;2023-04-28T02:27:35;30.17;;;10.43;;
45254;SDS011;30989;52.078;21.014;2023-04-28T02:30:02;21.23;;;8.52;;
45254;SDS011;30989;52.078;21.014;2023-04-28T02:32:28;26.05;;;10.73;;
45254;SDS011;30989;52.078;21.014;2023-04-28T02:34:53;29.50;;;9.95;;
45254;SDS011;30989;52.078;21.014;2023-04-28T02:37:21;22.85;;;9.52;;
45254;SDS011;30989;52.078;21.014;2023-04-28T02:39:48;18.58;;;9.25;;
45254;SDS011;30989;52.078;21.014;2023-04-28T02:42:13;19.92;;;8.98;;
45254;SDS011;30989;52.078;21.014;2023-04-28T02:44:39;20.33;;;9.50;;
45254;SDS011;30989;52.078;21.014;2023-04-28T02:47:04;23.02;;;9.70;;
45254;SDS011;30989;52.078;21.014;2023-04-28T02:49:30;27.75;;;10.90;;
45254;SDS011;30989;52.078;21.014;2023-04-28T02:51:55;23.80;;;10.50;;
45254;SDS011;30989;52.078;21.014;2023-04-28T02:54:21;24.65;;;10.02;;
45254;SDS011;30989;52.078;21.014;2023-04-28T02:56:52;27.42;;;10.98;;
45254;SDS011;30989;52.078;21.014;2023-04-28T02:59:19;25.10;;;10.95;;
45254;SDS011;30989;52.078;21.014;2023-04-28T03:01:45;22.73;;;9.65;;
45254;SDS011;30989;52.078;21.014;2023-04-28T03:04:12;24.85;;;9.57;;
45254;SDS011;30989;52.078;21.014;2023-04-28T03:06:37;27.25;;;11.68;;
45254;SDS011;30989;52.078;21.014;2023-04-28T03:09:03;33.53;;;12.40;;
45254;SDS011;30989;52.078;21.014;2023-04-28T03:11:28;22.70;;;9.95;;
45254;SDS011;30989;52.078;21.014;2023-04-28T03:13:54;27.70;;;9.65;;
45254;SDS011;30989;52.078;21.014;2023-04-28T03:16:20;46.95;;;15.73;;
45254;SDS011;30989;52.078;21.014;2023-04-28T03:18:45;34.92;;;15.30;;
45254;SDS011;30989;52.078;21.014;2023-04-28T03:21:11;30.85;;;13.73;;
45254;SDS011;30989;52.078;21.014;2023-04-28T03:23:36;39.97;;;15.05;;
45254;SDS011;30989;52.078;21.014;2023-04-28T03:26:03;31.02;;;13.40;;
45254;SDS011;30989;52.078;21.014;2023-04-28T03:28:28;33.22;;;14.60;;
45254;SDS011;30989;52.078;21.014;2023-04-28T03:30:54;39.78;;;15.15;;
45254;SDS011;30989;52.078;21.014;2023-04-28T03:33:19;41.33;;;15.32;;
45254;SDS011;30989;52.078;21.014;2023-04-28T03:35:45;42.10;;;15.15;;
45254;SDS011;30989;52.078;21.014;2023-04-28T03:38:10;41.08;;;17.10;;
45254;SDS011;30989;52.078;21.014;2023-04-28T03:40:36;40.25;;;15.98;;
45254;SDS011;30989;52.078;21.014;2023-04-28T03:43:11;42.30;;;14.90;;
45254;SDS011;30989;52.078;21.014;2023-04-28T03:45:42;32.38;;;13.85;;
45254;SDS011;30989;52.078;21.014;2023-04-28T03:48:08;37.92;;;15.80;;
45254;SDS011;30989;52.078;21.014;2023-04-28T03:50:35;39.92;;;15.60;;
45254;SDS011;30989;52.078;21.014;2023-04-28T03:53:00;38.28;;;14.90;;
45254;SDS011;30989;52.078;21.014;2023-04-28T03:55:26;30.25;;;13.07;;
45254;SDS011;30989;52.078;21.014;2023-04-28T03:57:51;31.42;;;15.18;;
45254;SDS011;30989;52.078;21.014;2023-04-28T04:00:17;37.75;;;13.95;;
45254;SDS011;30989;52.078;21.014;2023-04-28T04:02:46;33.20;;;12.35;;
45254;SDS011;30989;52.078;21.014;2023-04-28T04:05:11;37.28;;;13.45;;
45254;SDS011;30989;52.078;21.014;2023-04-28T04:07:36;26.92;;;11.43;;
45254;SDS011;30989;52.078;21.014;2023-04-28T04:10:03;44.15;;;19.73;;
45254;SDS011;30989;52.078;21.014;2023-04-28T04:12:29;29.95;;;14.15;;
45254;SDS011;30989;52.078;21.014;2023-04-28T04:14:54;32.50;;;13.82;;
45254;SDS011;30989;52.078;21.014;2023-04-28T04:17:20;32.28;;;13.32;;
45254;SDS011;30989;52.078;21.014;2023-04-28T04:19:46;37.92;;;14.55;;
45254;SDS011;30989;52.078;21.014;2023-04-28T04:22:12;33.33;;;13.75;;
45254;SDS011;30989;52.078;21.014;2023-04-28T04:24:38;28.02;;;12.45;;
45254;SDS011;30989;52.078;21.014;2023-04-28T04:27:03;38.97;;;13.60;;
45254;SDS011;30989;52.078;21.014;2023-04-28T04:29:32;33.25;;;13.05;;
45254;SDS011;30989;52.078;21.014;2023-04-28T04:32:01;27.02;;;11.43;;
45254;SDS011;30989;52.078;21.014;2023-04-28T04:34:27;26.60;;;12.00;;
45254;SDS011;30989;52.078;21.014;2023-04-28T04:36:52;29.30;;;10.60;;
45254;SDS011;30989;52.078;21.014;2023-04-28T04:39:18;24.83;;;10.35;;
45254;SDS011;30989;52.078;21.014;2023-04-28T04:41:43;29.70;;;10.77;;
45254;SDS011;30989;52.078;21.014;2023-04-28T04:44:28;36.28;;;14.95;;
45254;SDS011;30989;52.078;21.014;2023-04-28T04:46:55;24.77;;;12.10;;
45254;SDS011;30989;52.078;21.014;2023-04-28T04:49:20;21.35;;;10.20;;
45254;SDS011;30989;52.078;21.014;2023-04-28T04:51:46;26.13;;;11.05;;
45254;SDS011;30989;52.078;21.014;2023-04-28T04:54:11;33.25;;;12.00;;
45254;SDS011;30989;52.078;21.014;2023-04-28T04:56:39;22.02;;;10.98;;
45254;SDS011;30989;52.078;21.014;2023-04-28T04:59:06;23.48;;;10.02;;
45254;SDS011;30989;52.078;21.014;2023-04-28T05:01:55;22.02;;;10.50;;
45254;SDS011;30989;52.078;21.014;2023-04-28T05:04:20;21.48;;;9.95;;
45254;SDS011;30989;52.078;21.014;2023-04-28T05:06:46;25.85;;;11.50;;
45254;SDS011;30989;52.078;21.014;2023-04-28T05:09:12;26.48;;;10.25;;
45254;SDS011;30989;52.078;21.014;2023-04-28T05:11:37;23.58;;;10.75;;
45254;SDS011;30989;52.078;21.014;2023-04-28T05:14:03;28.00;;;10.48;;
45254;SDS011;30989;52.078;21.014;2023-04-28T05:16:29;30.08;;;10.88;;
45254;SDS011;30989;52.078;21.014;2023-04-28T05:19:03;21.25;;;9.95;;
45254;SDS011;30989;52.078;21.014;2023-04-28T05:21:29;24.02;;;10.07;;
45254;SDS011;30989;52.078;21.014;2023-04-28T05:23:55;23.55;;;10.10;;
45254;SDS011;30989;52.078;21.014;2023-04-28T05:26:22;26.48;;;9.00;;
45254;SDS011;30989;52.078;21.014;2023-04-28T05:28:51;26.35;;;9.45;;
45254;SDS011;30989;52.078;21.014;2023-04-28T05:31:16;20.27;;;8.45;;
45254;SDS011;30989;52.078;21.014;2023-04-28T05:33:42;36.38;;;11.80;;
45254;SDS011;30989;52.078;21.014;2023-04-28T05:36:08;20.90;;;10.30;;
45254;SDS011;30989;52.078;21.014;2023-04-28T05:38:34;27.75;;;9.32;;
45254;SDS011;30989;52.078;21.014;2023-04-28T05:41:00;17.08;;;7.50;;
45254;SDS011;30989;52.078;21.014;2023-04-28T05:43:27;16.00;;;8.27;;
45254;SDS011;30989;52.078;21.014;2023-04-28T05:45:52;24.52;;;9.88;;
45254;SDS011;30989;52.078;21.014;2023-04-28T05:48:18;23.55;;;8.70;;
45254;SDS011;30989;52.078;21.014;2023-04-28T05:50:43;19.83;;;8.45;;
45254;SDS011;30989;52.078;21.014;2023-04-28T05:53:10;22.70;;;7.50;;
45254;SDS011;30989;52.078;21.014;2023-04-28T05:55:35;17.58;;;7.35;;
45254;SDS011;30989;52.078;21.014;2023-04-28T05:58:02;21.92;;;8.45;;
45254;SDS011;30989;52.078;21.014;2023-04-28T06:00:28;19.38;;;7.68;;
45254;SDS011;30989;52.078;21.014;2023-04-28T06:02:58;17.88;;;7.47;;
45254;SDS011;30989;52.078;21.014;2023-04-28T06:05:23;20.58;;;8.23;;
45254;SDS011;30989;52.078;21.014;2023-04-28T06:07:51;18.40;;;7.65;;
45254;SDS011;30989;52.078;21.014;2023-04-28T06:10:17;16.88;;;7.05;;
45254;SDS011;30989;52.078;21.014;2023-04-28T06:12:43;21.40;;;7.38;;
45254;SDS011;30989;52.078;21.014;2023-04-28T06:15:08;15.65;;;6.53;;
45254;SDS011;30989;52.078;21.014;2023-04-28T06:17:34;19.05;;;8.02;;
45254;SDS011;30989;52.078;21.014;2023-04-28T06:20:00;19.67;;;7.22;;
45254;SDS011;30989;52.078;21.014;2023-04-28T06:22:25;17.58;;;6.60;;
45254;SDS011;30989;52.078;21.014;2023-04-28T06:24:51;12.80;;;5.68;;
45254;SDS011;30989;52.078;21.014;2023-04-28T06:27:22;19.27;;;7.13;;
45254;SDS011;30989;52.078;21.014;2023-04-28T06:29:48;25.95;;;7.22;;
45254;SDS011;30989;52.078;21.014;2023-04-28T06:32:13;17.80;;;7.03;;
45254;SDS011;30989;52.078;21.014;2023-04-28T06:34:39;11.45;;;5.68;;
45254;SDS011;30989;52.078;21.014;2023-04-28T06:37:06;25.63;;;7.82;;
45254;SDS011;30989;52.078;21.014;2023-04-28T06:39:31;15.13;;;5.85;;
45254;SDS011;30989;52.078;21.014;2023-04-28T06:41:57;21.30;;;5.82;;
45254;SDS011;30989;52.078;21.014;2023-04-28T06:44:24;26.17;;;6.82;;
45254;SDS011;30989;52.078;21.014;2023-04-28T06:46:50;17.58;;;7.15;;
45254;SDS011;30989;52.078;21.014;2023-04-28T06:49:15;26.75;;;6.78;;
45254;SDS011;30989;52.078;21.014;2023-04-28T06:51:41;15.88;;;6.82;;
45254;SDS011;30989;52.078;21.014;2023-04-28T06:54:07;13.05;;;5.93;;
45254;SDS011;30989;52.078;21.014;2023-04-28T06:56:32;11.30;;;5.03;;
45254;SDS011;30989;52.078;21.014;2023-04-28T06:59:00;23.23;;;5.45;;
45254;SDS011;30989;52.078;21.014;2023-04-28T07:01:25;15.07;;;5.60;;
45254;SDS011;30989;52.078;21.014;2023-04-28T07:03:50;17.15;;;5.43;;
45254;SDS011;30989;52.078;21.014;2023-04-28T07:06:16;13.98;;;5.18;;
45254;SDS011;30989;52.078;21.014;2023-04-28T07:08:42;9.75;;;5.05;;
45254;SDS011;30989;52.078;21.014;2023-04-28T07:11:08;15.27;;;5.00;;
45254;SDS011;30989;52.078;21.014;2023-04-28T07:13:33;11.40;;;5.00;;
45254;SDS011;30989;52.078;21.014;2023-04-28T07:15:59;14.18;;;5.13;;
45254;SDS011;30989;52.078;21.014;2023-04-28T07:18:25;15.98;;;4.30;;
45254;SDS011;30989;52.078;21.014;2023-04-28T07:20:50;12.23;;;4.90;;
45254;SDS011;30989;52.078;21.014;2023-04-28T07:23:15;14.88;;;3.90;;
45254;SDS011;30989;52.078;21.014;2023-04-28T07:25:41;7.38;;;3.65;;
45254;SDS011;30989;52.078;21.014;2023-04-28T07:28:07;11.68;;;4.60;;
45254;SDS011;30989;52.078;21.014;2023-04-28T07:30:33;8.38;;;3.88;;
45254;SDS011;30989;52.078;21.014;2023-04-28T07:32:59;16.13;;;3.33;;
45254;SDS011;30989;52.078;21.014;2023-04-28T07:35:24;7.28;;;3.38;;
45254;SDS011;30989;52.078;21.014;2023-04-28T07:37:50;10.68;;;3.80;;
45254;SDS011;30989;52.078;21.014;2023-04-28T07:40:16;11.57;;;2.95;;
45254;SDS011;30989;52.078;21.014;2023-04-28T07:42:42;9.98;;;3.45;;
45254;SDS011;30989;52.078;21.014;2023-04-28T07:45:08;10.15;;;3.03;;
45254;SDS011;30989;52.078;21.014;2023-04-28T07:47:36;8.10;;;2.83;;
45254;SDS011;30989;52.078;21.014;2023-04-28T07:50:02;6.25;;;2.55;;
45254;SDS011;30989;52.078;21.014;2023-04-28T07:52:30;11.27;;;2.80;;
45254;SDS011;30989;52.078;21.014;2023-04-28T07:54:57;5.03;;;1.92;;
45254;SDS011;30989;52.078;21.014;2023-04-28T07:57:23;3.53;;;1.60;;
45254;SDS011;30989;52.078;21.014;2023-04-28T07:59:48;4.18;;;1.70;;
45254;SDS011;30989;52.078;21.014;2023-04-28T08:02:14;4.80;;;1.30;;
45254;SDS011;30989;52.078;21.014;2023-04-28T08:04:40;3.90;;;1.73;;
45254;SDS011;30989;52.078;21.014;2023-04-28T08:07:05;5.70;;;2.05;;
45254;SDS011;30989;52.078;21.014;2023-04-28T08:09:31;7.50;;;2.17;;
45254;SDS011;30989;52.078;21.014;2023-04-28T08:11:56;5.00;;;1.85;;
45254;SDS011;30989;52.078;21.014;2023-04-28T08:14:23;6.53;;;2.22;;
45254;SDS011;30989;52.078;21.014;2023-04-28T08:16:48;7.60;;;2.42;;
45254;SDS011;30989;52.078;21.014;2023-04-28T08:19:14;5.82;;;2.00;;
45254;SDS011;30989;52.078;21.014;2023-04-28T08:21:42;4.25;;;1.90;;
45254;SDS011;30989;52.078;21.014;2023-04-28T08:24:08;5.45;;;2.20;;
45254;SDS011;30989;52.078;21.014;2023-04-28T08:26:35;19.60;;;4.60;;
45254;SDS011;30989;52.078;21.014;2023-04-28T08:29:01;6.75;;;2.28;;
45254;SDS011;30989;52.078;21.014;2023-04-28T08:31:26;4.60;;;2.35;;
45254;SDS011;30989;52.078;21.014;2023-04-28T08:33:52;6.03;;;1.85;;
45254;SDS011;30989;52.078;21.014;2023-04-28T08:36:17;5.00;;;2.42;;
45254;SDS011;30989;52.078;21.014;2023-04-28T08:38:43;6.03;;;2.78;;
45254;SDS011;30989;52.078;21.014;2023-04-28T08:41:09;8.35;;;1.92;;
45254;SDS011;30989;52.078;21.014;2023-04-28T08:43:37;13.60;;;3.28;;
45254;SDS011;30989;52.078;21.014;2023-04-28T08:46:05;5.85;;;2.22;;
45254;SDS011;30989;52.078;21.014;2023-04-28T08:48:36;5.20;;;2.05;;
45254;SDS011;30989;52.078;21.014;2023-04-28T08:51:04;8.68;;;1.83;;
45254;SDS011;30989;52.078;21.014;2023-04-28T08:53:30;5.85;;;2.08;;
45254;SDS011;30989;52.078;21.014;2023-04-28T08:55:59;5.57;;;1.90;;
45254;SDS011;30989;52.078;21.014;2023-04-28T08:58:26;7.90;;;2.63;;
45254;SDS011;30989;52.078;21.014;2023-04-28T09:00:52;5.05;;;1.60;;
45254;SDS011;30989;52.078;21.014;2023-04-28T09:03:18;3.05;;;1.38;;
45254;SDS011;30989;52.078;21.014;2023-04-28T09:05:44;3.38;;;1.42;;
45254;SDS011;30989;52.078;21.014;2023-04-28T09:08:10;3.78;;;1.42;;
45254;SDS011;30989;52.078;21.014;2023-04-28T09:10:38;4.00;;;1.90;;
45254;SDS011;30989;52.078;21.014;2023-04-28T09:13:04;7.45;;;2.10;;
45254;SDS011;30989;52.078;21.014;2023-04-28T09:15:30;6.97;;;2.00;;
45254;SDS011;30989;52.078;21.014;2023-04-28T09:18:01;3.70;;;1.70;;
45254;SDS011;30989;52.078;21.014;2023-04-28T09:20:28;4.03;;;1.60;;
45254;SDS011;30989;52.078;21.014;2023-04-28T09:22:55;4.55;;;1.77;;
45254;SDS011;30989;52.078;21.014;2023-04-28T09:25:37;3.60;;;1.30;;
45254;SDS011;30989;52.078;21.014;2023-04-28T09:28:18;5.63;;;2.08;;
45254;SDS011;30989;52.078;21.014;2023-04-28T09:30:46;5.55;;;1.23;;
45254;SDS011;30989;52.078;21.014;2023-04-28T09:33:12;3.92;;;1.60;;
45254;SDS011;30989;52.078;21.014;2023-04-28T09:35:37;5.38;;;1.30;;
45254;SDS011;30989;52.078;21.014;2023-04-28T09:38:04;5.20;;;1.38;;
45254;SDS011;30989;52.078;21.014;2023-04-28T09:40:29;3.10;;;1.30;;
45254;SDS011;30989;52.078;21.014;2023-04-28T09:42:55;4.70;;;2.58;;
45254;SDS011;30989;52.078;21.014;2023-04-28T09:45:21;4.10;;;1.48;;
45254;SDS011;30989;52.078;21.014;2023-04-28T09:47:46;6.20;;;2.00;;
45254;SDS011;30989;52.078;21.014;2023-04-28T09:50:12;3.35;;;1.58;;
45254;SDS011;30989;52.078;21.014;2023-04-28T09:52:42;4.90;;;1.77;;
45254;SDS011;30989;52.078;21.014;2023-04-28T09:55:10;5.30;;;1.67;;
45254;SDS011;30989;52.078;21.014;2023-04-28T09:57:37;6.40;;;1.67;;
45254;SDS011;30989;52.078;21.014;2023-04-28T10:00:04;11.13;;;2.40;;
45254;SDS011;30989;52.078;21.014;2023-04-28T10:02:33;3.53;;;1.48;;
45254;SDS011;30989;52.078;21.014;2023-04-28T10:05:00;4.53;;;1.60;;
45254;SDS011;30989;52.078;21.014;2023-04-28T10:07:26;6.38;;;1.77;;
45254;SDS011;30989;52.078;21.014;2023-04-28T10:09:52;11.38;;;2.70;;
45254;SDS011;30989;52.078;21.014;2023-04-28T10:12:20;7.93;;;1.73;;
45254;SDS011;30989;52.078;21.014;2023-04-28T10:14:47;5.63;;;1.38;;
45254;SDS011;30989;52.078;21.014;2023-04-28T10:17:15;2.83;;;1.40;;
45254;SDS011;30989;52.078;21.014;2023-04-28T10:19:42;5.68;;;1.50;;
45254;SDS011;30989;52.078;21.014;2023-04-28T10:22:21;11.50;;;1.70;;
45254;SDS011;30989;52.078;21.014;2023-04-28T10:25:16;7.47;;;1.80;;
45254;SDS011;30989;52.078;21.014;2023-04-28T10:27:50;7.22;;;1.85;;
45254;SDS011;30989;52.078;21.014;2023-04-28T10:32:43;3.17;;;1.73;;
45254;SDS011;30989;52.078;21.014;2023-04-28T10:38:05;5.75;;;2.72;;
45254;SDS011;30989;52.078;21.014;2023-04-28T10:40:33;4.93;;;1.77;;
45254;SDS011;30989;52.078;21.014;2023-04-28T10:42:58;7.13;;;1.98;;
45254;SDS011;30989;52.078;21.014;2023-04-28T10:48:20;7.13;;;1.83;;
45254;SDS011;30989;52.078;21.014;2023-04-28T10:56:06;12.73;;;2.45;;
45254;SDS011;30989;52.078;21.014;2023-04-28T10:58:32;4.70;;;1.80;;
45254;SDS011;30989;52.078;21.014;2023-04-28T11:03:59;5.53;;;1.60;;
45254;SDS011;30989;52.078;21.014;2023-04-28T11:06:35;5.75;;;2.25;;
45254;SDS011;30989;52.078;21.014;2023-04-28T11:16:48;3.97;;;1.95;;
45254;SDS011;30989;52.078;21.014;2023-04-28T11:19:21;4.00;;;1.80;;
45254;SDS011;30989;52.078;21.014;2023-04-28T11:21:52;5.60;;;2.38;;
45254;SDS011;30989;52.078;21.014;2023-04-28T11:24:22;3.22;;;1.67;;
45254;SDS011;30989;52.078;21.014;2023-04-28T11:26:49;5.88;;;2.03;;
45254;SDS011;30989;52.078;21.014;2023-04-28T11:29:16;7.80;;;2.75;;
45254;SDS011;30989;52.078;21.014;2023-04-28T11:31:48;5.53;;;2.17;;
45254;SDS011;30989;52.078;21.014;2023-04-28T11:34:18;4.80;;;2.13;;
45254;SDS011;30989;52.078;21.014;2023-04-28T11:36:45;4.47;;;1.90;;
45254;SDS011;30989;52.078;21.014;2023-04-28T11:39:11;5.00;;;2.22;;
45254;SDS011;30989;52.078;21.014;2023-04-28T11:44:17;4.55;;;2.15;;
45254;SDS011;30989;52.078;21.014;2023-04-28T11:49:20;4.20;;;1.95;;
45254;SDS011;30989;52.078;21.014;2023-04-28T11:51:48;7.28;;;2.20;;
45254;SDS011;30989;52.078;21.014;2023-04-28T11:54:24;7.05;;;2.45;;
45254;SDS011;30989;52.078;21.014;2023-04-28T11:56:51;3.67;;;1.48;;
45254;SDS011;30989;52.078;21.014;2023-04-28T11:59:22;5.82;;;2.75;;
45254;SDS011;30989;52.078;21.014;2023-04-28T12:01:51;3.67;;;2.28;;
45254;SDS011;30989;52.078;21.014;2023-04-28T12:04:27;4.45;;;2.08;;
45254;SDS011;30989;52.078;21.014;2023-04-28T12:07:13;5.90;;;1.95;;
45254;SDS011;30989;52.078;21.014;2023-04-28T12:09:40;6.25;;;2.75;;
45254;SDS011;30989;52.078;21.014;2023-04-28T12:12:08;5.10;;;2.58;;
45254;SDS011;30989;52.078;21.014;2023-04-28T12:17:42;6.10;;;3.15;;
45254;SDS011;30989;52.078;21.014;2023-04-28T12:20:08;5.75;;;2.33;;
45254;SDS011;30989;52.078;21.014;2023-04-28T12:22:42;5.72;;;2.30;;
45254;SDS011;30989;52.078;21.014;2023-04-28T12:25:11;6.07;;;2.63;;
45254;SDS011;30989;52.078;21.014;2023-04-28T12:27:38;5.55;;;2.80;;
45254;SDS011;30989;52.078;21.014;2023-04-28T12:32:45;7.37;;;2.70;;
45254;SDS011;30989;52.078;21.014;2023-04-28T12:35:11;7.10;;;2.88;;
45254;SDS011;30989;52.078;21.014;2023-04-28T12:37:36;5.30;;;2.45;;
45254;SDS011;30989;52.078;21.014;2023-04-28T12:40:06;7.75;;;2.78;;
45254;SDS011;30989;52.078;21.014;2023-04-28T12:42:32;8.30;;;3.50;;
45254;SDS011;30989;52.078;21.014;2023-04-28T12:44:58;5.30;;;3.38;;
45254;SDS011;30989;52.078;21.014;2023-04-28T12:47:23;6.88;;;3.20;;
45254;SDS011;30989;52.078;21.014;2023-04-28T12:49:49;6.85;;;3.10;;
45254;SDS011;30989;52.078;21.014;2023-04-28T12:52:16;13.18;;;3.65;;
45254;SDS011;30989;52.078;21.014;2023-04-28T12:54:43;5.80;;;2.70;;
45254;SDS011;30989;52.078;21.014;2023-04-28T12:57:11;14.00;;;3.75;;
45254;SDS011;30989;52.078;21.014;2023-04-28T12:59:41;7.18;;;4.47;;
45254;SDS011;30989;52.078;21.014;2023-04-28T13:02:07;6.90;;;2.72;;
45254;SDS011;30989;52.078;21.014;2023-04-28T13:04:33;7.82;;;3.28;;
45254;SDS011;30989;52.078;21.014;2023-04-28T13:06:59;7.28;;;3.60;;
45254;SDS011;30989;52.078;21.014;2023-04-28T13:09:25;12.05;;;2.83;;
45254;SDS011;30989;52.078;21.014;2023-04-28T13:11:54;8.32;;;2.75;;
45254;SDS011;30989;52.078;21.014;2023-04-28T13:14:20;8.20;;;4.00;;
45254;SDS011;30989;52.078;21.014;2023-04-28T13:16:45;5.18;;;3.03;;
45254;SDS011;30989;52.078;21.014;2023-04-28T13:19:11;9.77;;;2.88;;
45254;SDS011;30989;52.078;21.014;2023-04-28T13:21:41;5.88;;;2.70;;
45254;SDS011;30989;52.078;21.014;2023-04-28T13:24:07;10.35;;;3.47;;
45254;SDS011;30989;52.078;21.014;2023-04-28T13:26:33;5.30;;;2.88;;
45254;SDS011;30989;52.078;21.014;2023-04-28T13:28:59;5.18;;;3.63;;
45254;SDS011;30989;52.078;21.014;2023-04-28T13:31:26;8.02;;;2.95;;
45254;SDS011;30989;52.078;21.014;2023-04-28T13:33:53;10.10;;;3.45;;
45254;SDS011;30989;52.078;21.014;2023-04-28T13:36:19;4.78;;;2.75;;
45254;SDS011;30989;52.078;21.014;2023-04-28T13:38:44;5.18;;;2.88;;
45254;SDS011;30989;52.078;21.014;2023-04-28T13:41:13;6.57;;;2.47;;
45254;SDS011;30989;52.078;21.014;2023-04-28T13:43:39;6.00;;;2.75;;
45254;SDS011;30989;52.078;21.014;2023-04-28T13:46:05;6.22;;;2.45;;
45254;SDS011;30989;52.078;21.014;2023-04-28T13:48:33;5.88;;;3.25;;
45254;SDS011;30989;52.078;21.014;2023-04-28T13:51:01;8.73;;;3.92;;
45254;SDS011;30989;52.078;21.014;2023-04-28T13:53:28;7.22;;;2.50;;
45254;SDS011;30989;52.078;21.014;2023-04-28T13:55:54;7.50;;;3.17;;
45254;SDS011;30989;52.078;21.014;2023-04-28T13:58:27;6.63;;;2.72;;
45254;SDS011;30989;52.078;21.014;2023-04-28T14:00:53;4.63;;;2.70;;
45254;SDS011;30989;52.078;21.014;2023-04-28T14:03:19;5.45;;;2.58;;
45254;SDS011;30989;52.078;21.014;2023-04-28T14:05:50;5.72;;;3.30;;
45254;SDS011;30989;52.078;21.014;2023-04-28T14:08:17;4.53;;;2.85;;
45254;SDS011;30989;52.078;21.014;2023-04-28T14:10:43;5.50;;;2.90;;
45254;SDS011;30989;52.078;21.014;2023-04-28T14:13:09;5.32;;;2.83;;
45254;SDS011;30989;52.078;21.014;2023-04-28T14:15:35;6.03;;;3.08;;
45254;SDS011;30989;52.078;21.014;2023-04-28T14:18:01;5.75;;;2.53;;
45254;SDS011;30989;52.078;21.014;2023-04-28T14:20:26;8.48;;;3.67;;
45254;SDS011;30989;52.078;21.014;2023-04-28T14:22:52;9.05;;;2.95;;
45254;SDS011;30989;52.078;21.014;2023-04-28T14:25:17;8.65;;;4.60;;
45254;SDS011;30989;52.078;21.014;2023-04-28T14:27:43;5.68;;;2.72;;
45254;SDS011;30989;52.078;21.014;2023-04-28T14:30:09;8.68;;;2.65;;
45254;SDS011;30989;52.078;21.014;2023-04-28T14:32:35;9.00;;;2.95;;
45254;SDS011;30989;52.078;21.014;2023-04-28T14:35:02;7.28;;;3.28;;
45254;SDS011;30989;52.078;21.014;2023-04-28T14:37:29;9.50;;;3.20;;
45254;SDS011;30989;52.078;21.014;2023-04-28T14:39:55;6.30;;;3.28;;
45254;SDS011;30989;52.078;21.014;2023-04-28T14:42:20;6.80;;;2.63;;
45254;SDS011;30989;52.078;21.014;2023-04-28T14:44:47;4.70;;;2.33;;
45254;SDS011;30989;52.078;21.014;2023-04-28T14:47:12;4.75;;;2.80;;
45254;SDS011;30989;52.078;21.014;2023-04-28T14:49:37;6.10;;;3.00;;
45254;SDS011;30989;52.078;21.014;2023-04-28T14:52:03;6.97;;;2.53;;
45254;SDS011;30989;52.078;21.014;2023-04-28T14:54:29;6.00;;;3.28;;
45254;SDS011;30989;52.078;21.014;2023-04-28T14:56:54;9.43;;;3.42;;